Capt. Billy Slatten — WDC3380 — position and weather

sailwx.info

Track history (hours):
 
Tides and Currents Weather Stations Pressure Air Temp Water Temp Dewpoint Dewpoint Depression Visibility Wind Speed Wind Dir Waves Ship Positions

Capt. Billy Slatten

Owner: Bisso Tow Boat Co Inc, New Orleans, LA. More information available from US FCC via Universal Licensing System and Coast Guard Vessel Documentation Center.

Last reported at 2016-Nov-17 11:26 UTC. Time now 2016-Dec-08 00:11 UTC.
Position N 30°04' W 090°54'.
Warning: this ship's position is 20 days out of date.

Length 30 m; draft 3.5 m.

Type: Tug. MMSI: 367007030.

Date/timePositionNaut miles runAvg speedWind from/ knotsBaromVisibWave heightAir tempDewpointWater temp
2016-Nov-17 11:26N 30°04' W 090°54'0 0.0
2016-Nov-17 08:33N 30°04' W 090°54'  
2016-Nov-10 06:33N 29°55' W 090°08'0 0.0
2016-Nov-10 05:10N 29°55' W 090°08'1 0.1
2016-Nov-09 18:58N 29°55' W 090°08'1 0.8
2016-Nov-09 18:07N 29°55' W 090°08'1 1.0
2016-Nov-09 17:11N 29°56' W 090°09'6 1.6
2016-Nov-09 13:29N 29°58' W 090°15'6 0.7
2016-Nov-09 04:22N 29°55' W 090°08'0 0.1
2016-Nov-08 23:15N 29°56' W 090°08'6 7.8
2016-Nov-08 22:32N 29°58' W 090°14'  
Track history (hours):
 
Tides and Currents Weather Stations Pressure Air Temp Water Temp Dewpoint Dewpoint Depression Visibility Wind Speed Wind Dir Waves Ship Positions

Capt. Billy Slatten

Owner: Bisso Tow Boat Co Inc, New Orleans, LA. More information available from US FCC via Universal Licensing System and Coast Guard Vessel Documentation Center.

Last reported at 2016-Nov-17 11:26 UTC. Time now 2016-Dec-08 00:11 UTC.
Position N 30°04' W 090°54'.
Warning: this ship's position is 20 days out of date.

Length 30 m; draft 3.5 m.

Type: Tug. MMSI: 367007030.

Date/timePositionNaut miles runAvg speedWind from/ knotsBaromVisibWave heightAir tempDewpointWater temp
2016-Nov-17 11:26N 30°04' W 090°54'0 0.0
2016-Nov-17 08:33N 30°04' W 090°54'  
2016-Nov-10 06:33N 29°55' W 090°08'0 0.0
2016-Nov-10 05:10N 29°55' W 090°08'1 0.1
2016-Nov-09 18:58N 29°55' W 090°08'1 0.8
2016-Nov-09 18:07N 29°55' W 090°08'1 1.0
2016-Nov-09 17:11N 29°56' W 090°09'6 1.6
2016-Nov-09 13:29N 29°58' W 090°15'6 0.7
2016-Nov-09 04:22N 29°55' W 090°08'0 0.1
2016-Nov-08 23:15N 29°56' W 090°08'6 7.8
2016-Nov-08 22:32N 29°58' W 090°14'  

Dump ship's entire track history